sensor_id;sensor_type;location;lat;lon;timestamp;temperature;humidity
25918;DHT22;13899;51.174;4.456;2022-10-31T00:01:35;15.30;99.90
25918;DHT22;13899;51.174;4.456;2022-10-31T00:04:01;15.30;99.90
25918;DHT22;13899;51.174;4.456;2022-10-31T00:06:27;15.10;99.90
25918;DHT22;13899;51.174;4.456;2022-10-31T00:08:55;15.20;99.90
25918;DHT22;13899;51.174;4.456;2022-10-31T00:11:21;15.20;99.90
25918;DHT22;13899;51.174;4.456;2022-10-31T00:13:47;15.10;99.90
25918;DHT22;13899;51.174;4.456;2022-10-31T00:16:15;14.90;99.90
25918;DHT22;13899;51.174;4.456;2022-10-31T00:18:40;14.80;99.90
25918;DHT22;13899;51.174;4.456;2022-10-31T00:21:06;14.90;99.90
25918;DHT22;13899;51.174;4.456;2022-10-31T00:23:31;14.80;99.90
25918;DHT22;13899;51.174;4.456;2022-10-31T00:26:02;14.90;99.90
25918;DHT22;13899;51.174;4.456;2022-10-31T00:28:28;14.80;99.90
25918;DHT22;13899;51.174;4.456;2022-10-31T00:30:58;14.70;99.90
25918;DHT22;13899;51.174;4.456;2022-10-31T00:33:24;14.80;99.90
25918;DHT22;13899;51.174;4.456;2022-10-31T00:35:50;14.80;99.90
25918;DHT22;13899;51.174;4.456;2022-10-31T00:38:16;14.80;99.90
25918;DHT22;13899;51.174;4.456;2022-10-31T00:40:41;14.70;99.90
25918;DHT22;13899;51.174;4.456;2022-10-31T00:43:07;14.60;99.90
25918;DHT22;13899;51.174;4.456;2022-10-31T00:45:33;14.50;99.90
25918;DHT22;13899;51.174;4.456;2022-10-31T00:47:58;14.40;99.90
25918;DHT22;13899;51.174;4.456;2022-10-31T00:50:24;14.40;99.90
25918;DHT22;13899;51.174;4.456;2022-10-31T00:52:49;14.30;99.90
25918;DHT22;13899;51.174;4.456;2022-10-31T00:55:15;14.30;99.90
25918;DHT22;13899;51.174;4.456;2022-10-31T00:57:40;14.30;99.90
25918;DHT22;13899;51.174;4.456;2022-10-31T01:00:06;14.30;99.90
25918;DHT22;13899;51.174;4.456;2022-10-31T01:02:32;14.30;99.90
25918;DHT22;13899;51.174;4.456;2022-10-31T01:04:58;14.30;99.90
25918;DHT22;13899;51.174;4.456;2022-10-31T01:07:23;14.30;99.90
25918;DHT22;13899;51.174;4.456;2022-10-31T01:09:49;14.10;99.90
25918;DHT22;13899;51.174;4.456;2022-10-31T01:12:14;13.90;99.90
25918;DHT22;13899;51.174;4.456;2022-10-31T01:14:46;13.80;99.90
25918;DHT22;13899;51.174;4.456;2022-10-31T01:17:12;13.90;99.90
25918;DHT22;13899;51.174;4.456;2022-10-31T01:19:38;14.00;99.90
25918;DHT22;13899;51.174;4.456;2022-10-31T01:22:04;14.00;99.90
25918;DHT22;13899;51.174;4.456;2022-10-31T01:24:29;14.00;99.90
25918;DHT22;13899;51.174;4.456;2022-10-31T01:26:55;14.00;99.90
25918;DHT22;13899;51.174;4.456;2022-10-31T01:29:21;13.90;99.90
25918;DHT22;13899;51.174;4.456;2022-10-31T01:31:46;13.90;99.90
25918;DHT22;13899;51.174;4.456;2022-10-31T01:34:16;13.60;99.90
25918;DHT22;13899;51.174;4.456;2022-10-31T01:36:44;13.60;99.90
25918;DHT22;13899;51.174;4.456;2022-10-31T01:39:13;13.70;99.90
25918;DHT22;13899;51.174;4.456;2022-10-31T01:41:42;13.70;99.90
25918;DHT22;13899;51.174;4.456;2022-10-31T01:52:09;13.50;99.90
25918;DHT22;13899;51.174;4.456;2022-10-31T01:54:41;13.60;99.90
25918;DHT22;13899;51.174;4.456;2022-10-31T01:57:10;13.50;99.90
25918;DHT22;13899;51.174;4.456;2022-10-31T01:59:40;13.50;99.90
25918;DHT22;13899;51.174;4.456;2022-10-31T02:02:08;13.50;99.90
25918;DHT22;13899;51.174;4.456;2022-10-31T02:04:34;13.40;99.90
25918;DHT22;13899;51.174;4.456;2022-10-31T02:07:13;13.30;99.90
25918;DHT22;13899;51.174;4.456;2022-10-31T02:09:40;13.30;99.90
25918;DHT22;13899;51.174;4.456;2022-10-31T02:12:09;13.40;99.90
25918;DHT22;13899;51.174;4.456;2022-10-31T02:14:36;13.30;99.90
25918;DHT22;13899;51.174;4.456;2022-10-31T02:17:02;13.40;99.90
25918;DHT22;13899;51.174;4.456;2022-10-31T02:26:07;13.30;99.90
25918;DHT22;13899;51.174;4.456;2022-10-31T02:31:45;13.30;99.90
25918;DHT22;13899;51.174;4.456;2022-10-31T02:34:21;13.30;99.90
25918;DHT22;13899;51.174;4.456;2022-10-31T02:44:51;13.20;99.90
25918;DHT22;13899;51.174;4.456;2022-10-31T02:47:23;13.20;99.90
25918;DHT22;13899;51.174;4.456;2022-10-31T02:50:06;13.10;99.90
25918;DHT22;13899;51.174;4.456;2022-10-31T02:52:33;12.90;99.90
25918;DHT22;13899;51.174;4.456;2022-10-31T02:55:39;12.80;99.90
25918;DHT22;13899;51.174;4.456;2022-10-31T02:58:05;12.90;99.90
25918;DHT22;13899;51.174;4.456;2022-10-31T03:00:40;12.80;99.90
25918;DHT22;13899;51.174;4.456;2022-10-31T03:03:16;12.90;99.90
25918;DHT22;13899;51.174;4.456;2022-10-31T03:05:56;13.00;99.90
25918;DHT22;13899;51.174;4.456;2022-10-31T03:10:57;13.00;99.90
25918;DHT22;13899;51.174;4.456;2022-10-31T03:13:49;12.80;99.90
25918;DHT22;13899;51.174;4.456;2022-10-31T03:16:28;12.90;99.90
25918;DHT22;13899;51.174;4.456;2022-10-31T03:19:08;12.80;99.90
25918;DHT22;13899;51.174;4.456;2022-10-31T03:21:43;12.80;99.90
25918;DHT22;13899;51.174;4.456;2022-10-31T03:24:11;12.90;99.90
25918;DHT22;13899;51.174;4.456;2022-10-31T03:26:41;12.80;99.90
25918;DHT22;13899;51.174;4.456;2022-10-31T03:29:11;12.80;99.90
25918;DHT22;13899;51.174;4.456;2022-10-31T03:31:45;12.80;99.90
25918;DHT22;13899;51.174;4.456;2022-10-31T03:34:14;12.70;99.90
25918;DHT22;13899;51.174;4.456;2022-10-31T03:36:41;12.80;99.90
25918;DHT22;13899;51.174;4.456;2022-10-31T03:39:08;12.80;99.90
25918;DHT22;13899;51.174;4.456;2022-10-31T03:41:40;12.80;99.90
25918;DHT22;13899;51.174;4.456;2022-10-31T03:44:10;12.80;99.90
25918;DHT22;13899;51.174;4.456;2022-10-31T03:46:38;12.50;99.90
25918;DHT22;13899;51.174;4.456;2022-10-31T03:49:03;12.50;99.90
25918;DHT22;13899;51.174;4.456;2022-10-31T03:53:56;12.50;99.90
25918;DHT22;13899;51.174;4.456;2022-10-31T03:56:35;12.60;99.90
25918;DHT22;13899;51.174;4.456;2022-10-31T03:59:02;12.60;99.90
25918;DHT22;13899;51.174;4.456;2022-10-31T04:01:35;12.60;99.90
25918;DHT22;13899;51.174;4.456;2022-10-31T04:04:03;12.50;99.90
25918;DHT22;13899;51.174;4.456;2022-10-31T04:06:29;12.50;99.90
25918;DHT22;13899;51.174;4.456;2022-10-31T04:08:59;12.50;99.90
25918;DHT22;13899;51.174;4.456;2022-10-31T04:11:29;12.50;99.90
25918;DHT22;13899;51.174;4.456;2022-10-31T04:13:57;12.40;99.90
25918;DHT22;13899;51.174;4.456;2022-10-31T04:16:24;12.30;99.90
25918;DHT22;13899;51.174;4.456;2022-10-31T04:18:51;12.30;99.90
25918;DHT22;13899;51.174;4.456;2022-10-31T04:21:16;12.40;99.90
25918;DHT22;13899;51.174;4.456;2022-10-31T04:23:42;12.30;99.90
25918;DHT22;13899;51.174;4.456;2022-10-31T04:26:11;12.30;99.90
25918;DHT22;13899;51.174;4.456;2022-10-31T04:28:37;12.30;99.90
25918;DHT22;13899;51.174;4.456;2022-10-31T04:31:02;12.30;99.90
25918;DHT22;13899;51.174;4.456;2022-10-31T04:33:28;12.30;99.90
25918;DHT22;13899;51.174;4.456;2022-10-31T04:35:53;12.20;99.90
25918;DHT22;13899;51.174;4.456;2022-10-31T04:38:19;12.20;99.90
25918;DHT22;13899;51.174;4.456;2022-10-31T04:40:45;12.20;99.90
25918;DHT22;13899;51.174;4.456;2022-10-31T04:43:11;12.20;99.90
25918;DHT22;13899;51.174;4.456;2022-10-31T04:45:37;12.10;99.90
25918;DHT22;13899;51.174;4.456;2022-10-31T04:48:03;12.20;99.90
25918;DHT22;13899;51.174;4.456;2022-10-31T04:50:29;12.10;99.90
25918;DHT22;13899;51.174;4.456;2022-10-31T04:52:55;12.10;99.90
25918;DHT22;13899;51.174;4.456;2022-10-31T04:55:20;12.10;99.90
25918;DHT22;13899;51.174;4.456;2022-10-31T04:57:48;12.00;99.90
25918;DHT22;13899;51.174;4.456;2022-10-31T05:00:16;12.00;99.90
25918;DHT22;13899;51.174;4.456;2022-10-31T05:02:49;12.00;99.90
25918;DHT22;13899;51.174;4.456;2022-10-31T05:05:16;12.00;99.90
25918;DHT22;13899;51.174;4.456;2022-10-31T05:07:43;11.80;99.90
25918;DHT22;13899;51.174;4.456;2022-10-31T05:10:13;11.70;99.90
25918;DHT22;13899;51.174;4.456;2022-10-31T05:12:46;11.90;99.90
25918;DHT22;13899;51.174;4.456;2022-10-31T05:15:12;11.90;99.90
25918;DHT22;13899;51.174;4.456;2022-10-31T05:17:38;11.80;99.90
25918;DHT22;13899;51.174;4.456;2022-10-31T05:20:04;11.70;99.90
25918;DHT22;13899;51.174;4.456;2022-10-31T05:22:29;11.60;99.90
25918;DHT22;13899;51.174;4.456;2022-10-31T05:24:55;11.60;99.90
25918;DHT22;13899;51.174;4.456;2022-10-31T05:27:20;11.60;99.90
25918;DHT22;13899;51.174;4.456;2022-10-31T05:29:46;11.60;99.90
25918;DHT22;13899;51.174;4.456;2022-10-31T05:32:12;11.70;99.90
25918;DHT22;13899;51.174;4.456;2022-10-31T05:34:37;11.60;99.90
25918;DHT22;13899;51.174;4.456;2022-10-31T05:37:03;11.60;99.90
25918;DHT22;13899;51.174;4.456;2022-10-31T05:39:28;11.70;99.90
25918;DHT22;13899;51.174;4.456;2022-10-31T05:41:54;11.80;99.90
25918;DHT22;13899;51.174;4.456;2022-10-31T05:44:19;11.70;99.90
25918;DHT22;13899;51.174;4.456;2022-10-31T05:46:46;11.60;99.90
25918;DHT22;13899;51.174;4.456;2022-10-31T05:49:12;11.40;99.90
25918;DHT22;13899;51.174;4.456;2022-10-31T05:51:39;11.40;99.90
25918;DHT22;13899;51.174;4.456;2022-10-31T05:54:04;11.50;99.90
25918;DHT22;13899;51.174;4.456;2022-10-31T05:56:30;11.60;99.90
25918;DHT22;13899;51.174;4.456;2022-10-31T05:58:55;11.60;99.90
25918;DHT22;13899;51.174;4.456;2022-10-31T06:01:21;11.70;99.90
25918;DHT22;13899;51.174;4.456;2022-10-31T06:03:47;11.70;99.90
25918;DHT22;13899;51.174;4.456;2022-10-31T06:06:12;11.80;99.90
25918;DHT22;13899;51.174;4.456;2022-10-31T06:08:38;11.80;99.90
25918;DHT22;13899;51.174;4.456;2022-10-31T06:11:03;12.10;99.90
25918;DHT22;13899;51.174;4.456;2022-10-31T06:13:29;12.10;99.90
25918;DHT22;13899;51.174;4.456;2022-10-31T06:15:55;12.30;99.90
25918;DHT22;13899;51.174;4.456;2022-10-31T06:18:20;12.50;99.90
25918;DHT22;13899;51.174;4.456;2022-10-31T06:20:47;12.50;99.90
25918;DHT22;13899;51.174;4.456;2022-10-31T06:23:12;12.50;99.90
25918;DHT22;13899;51.174;4.456;2022-10-31T06:25:38;12.50;99.90
25918;DHT22;13899;51.174;4.456;2022-10-31T06:28:11;12.50;99.90
25918;DHT22;13899;51.174;4.456;2022-10-31T06:30:39;12.70;99.90
25918;DHT22;13899;51.174;4.456;2022-10-31T06:33:05;12.60;99.90
25918;DHT22;13899;51.174;4.456;2022-10-31T06:35:31;12.50;99.90
25918;DHT22;13899;51.174;4.456;2022-10-31T06:37:58;12.50;99.90
25918;DHT22;13899;51.174;4.456;2022-10-31T06:40:25;12.70;99.90
25918;DHT22;13899;51.174;4.456;2022-10-31T06:43:00;12.70;99.90
25918;DHT22;13899;51.174;4.456;2022-10-31T06:45:26;12.70;99.90
25918;DHT22;13899;51.174;4.456;2022-10-31T06:47:53;12.70;99.90
25918;DHT22;13899;51.174;4.456;2022-10-31T06:50:19;12.80;99.90
25918;DHT22;13899;51.174;4.456;2022-10-31T06:52:51;12.80;99.90
25918;DHT22;13899;51.174;4.456;2022-10-31T06:55:16;12.50;99.90
25918;DHT22;13899;51.174;4.456;2022-10-31T06:57:48;12.50;99.90
25918;DHT22;13899;51.174;4.456;2022-10-31T07:00:14;12.40;99.90
25918;DHT22;13899;51.174;4.456;2022-10-31T07:02:40;12.70;99.90
25918;DHT22;13899;51.174;4.456;2022-10-31T07:05:05;12.90;99.90
25918;DHT22;13899;51.174;4.456;2022-10-31T07:07:31;12.80;99.90
25918;DHT22;13899;51.174;4.456;2022-10-31T07:09:56;12.90;99.90
25918;DHT22;13899;51.174;4.456;2022-10-31T07:12:22;13.10;99.90
25918;DHT22;13899;51.174;4.456;2022-10-31T07:14:48;13.10;99.90
25918;DHT22;13899;51.174;4.456;2022-10-31T07:17:13;13.30;99.90
25918;DHT22;13899;51.174;4.456;2022-10-31T07:19:39;13.40;99.90
25918;DHT22;13899;51.174;4.456;2022-10-31T07:22:05;13.50;99.90
25918;DHT22;13899;51.174;4.456;2022-10-31T07:24:30;13.60;99.90
25918;DHT22;13899;51.174;4.456;2022-10-31T07:26:56;13.70;99.90
25918;DHT22;13899;51.174;4.456;2022-10-31T07:29:21;13.80;99.90
25918;DHT22;13899;51.174;4.456;2022-10-31T07:31:47;13.70;99.90
25918;DHT22;13899;51.174;4.456;2022-10-31T07:34:13;13.60;99.90
25918;DHT22;13899;51.174;4.456;2022-10-31T07:36:38;13.60;99.90
25918;DHT22;13899;51.174;4.456;2022-10-31T07:39:04;13.70;99.90
25918;DHT22;13899;51.174;4.456;2022-10-31T07:41:31;13.70;99.90
25918;DHT22;13899;51.174;4.456;2022-10-31T07:43:56;13.60;99.90
25918;DHT22;13899;51.174;4.456;2022-10-31T07:46:22;13.60;99.90
25918;DHT22;13899;51.174;4.456;2022-10-31T07:48:48;13.50;99.90
25918;DHT22;13899;51.174;4.456;2022-10-31T07:51:13;13.50;99.90
25918;DHT22;13899;51.174;4.456;2022-10-31T07:53:39;13.60;99.90
25918;DHT22;13899;51.174;4.456;2022-10-31T07:56:05;13.70;99.90
25918;DHT22;13899;51.174;4.456;2022-10-31T07:58:30;13.60;99.90
25918;DHT22;13899;51.174;4.456;2022-10-31T08:00:57;13.70;99.90
25918;DHT22;13899;51.174;4.456;2022-10-31T08:03:23;13.90;99.90
25918;DHT22;13899;51.174;4.456;2022-10-31T08:05:48;14.00;99.90
25918;DHT22;13899;51.174;4.456;2022-10-31T08:08:14;14.10;99.90
25918;DHT22;13899;51.174;4.456;2022-10-31T08:10:41;14.20;99.90
25918;DHT22;13899;51.174;4.456;2022-10-31T08:13:12;14.20;99.90
25918;DHT22;13899;51.174;4.456;2022-10-31T08:15:38;14.30;99.90
25918;DHT22;13899;51.174;4.456;2022-10-31T08:18:13;14.20;99.90
25918;DHT22;13899;51.174;4.456;2022-10-31T08:20:40;14.30;99.90
25918;DHT22;13899;51.174;4.456;2022-10-31T08:23:06;14.40;99.90
25918;DHT22;13899;51.174;4.456;2022-10-31T08:25:33;14.50;99.90
25918;DHT22;13899;51.174;4.456;2022-10-31T08:27:59;14.60;99.90
25918;DHT22;13899;51.174;4.456;2022-10-31T08:30:28;14.60;99.90
25918;DHT22;13899;51.174;4.456;2022-10-31T08:33:01;14.70;99.90
25918;DHT22;13899;51.174;4.456;2022-10-31T08:35:30;14.80;99.90
25918;DHT22;13899;51.174;4.456;2022-10-31T08:37:56;14.90;99.90
25918;DHT22;13899;51.174;4.456;2022-10-31T08:40:23;15.10;99.90
25918;DHT22;13899;51.174;4.456;2022-10-31T08:42:59;15.10;99.90
25918;DHT22;13899;51.174;4.456;2022-10-31T08:45:26;15.10;99.90
25918;DHT22;13899;51.174;4.456;2022-10-31T08:47:51;15.30;99.90
25918;DHT22;13899;51.174;4.456;2022-10-31T08:50:17;15.00;99.90
25918;DHT22;13899;51.174;4.456;2022-10-31T08:52:43;14.90;99.90
25918;DHT22;13899;51.174;4.456;2022-10-31T08:55:09;14.70;99.90
25918;DHT22;13899;51.174;4.456;2022-10-31T08:57:34;15.00;99.90
25918;DHT22;13899;51.174;4.456;2022-10-31T09:00:20;15.20;99.90
25918;DHT22;13899;51.174;4.456;2022-10-31T09:02:45;15.10;99.90
25918;DHT22;13899;51.174;4.456;2022-10-31T09:05:18;15.10;99.90
25918;DHT22;13899;51.174;4.456;2022-10-31T09:07:44;15.10;99.90
25918;DHT22;13899;51.174;4.456;2022-10-31T09:10:09;14.90;99.90
25918;DHT22;13899;51.174;4.456;2022-10-31T09:12:35;15.00;99.90
25918;DHT22;13899;51.174;4.456;2022-10-31T09:15:03;15.00;99.90
25918;DHT22;13899;51.174;4.456;2022-10-31T09:17:31;15.00;99.90
25918;DHT22;13899;51.174;4.456;2022-10-31T09:19:58;15.00;99.90
25918;DHT22;13899;51.174;4.456;2022-10-31T09:22:24;15.10;99.90
25918;DHT22;13899;51.174;4.456;2022-10-31T09:24:50;15.10;99.90
25918;DHT22;13899;51.174;4.456;2022-10-31T09:27:15;15.30;99.90
25918;DHT22;13899;51.174;4.456;2022-10-31T09:29:41;15.10;99.90
25918;DHT22;13899;51.174;4.456;2022-10-31T09:32:07;15.30;99.90
25918;DHT22;13899;51.174;4.456;2022-10-31T09:34:34;15.70;99.90
25918;DHT22;13899;51.174;4.456;2022-10-31T09:37:04;15.50;99.90
25918;DHT22;13899;51.174;4.456;2022-10-31T09:39:33;15.30;99.90
25918;DHT22;13899;51.174;4.456;2022-10-31T09:42:52;15.60;99.90
25918;DHT22;13899;51.174;4.456;2022-10-31T09:48:17;15.90;99.90
25918;DHT22;13899;51.174;4.456;2022-10-31T09:50:52;15.30;99.90
25918;DHT22;13899;51.174;4.456;2022-10-31T09:53:33;14.80;99.90
25918;DHT22;13899;51.174;4.456;2022-10-31T09:56:01;15.10;99.90
25918;DHT22;13899;51.174;4.456;2022-10-31T09:58:28;15.40;99.90
25918;DHT22;13899;51.174;4.456;2022-10-31T10:00:59;15.40;99.90
25918;DHT22;13899;51.174;4.456;2022-10-31T10:06:23;15.40;99.90
25918;DHT22;13899;51.174;4.456;2022-10-31T10:08:50;15.20;99.90
25918;DHT22;13899;51.174;4.456;2022-10-31T10:14:35;15.30;99.90
25918;DHT22;13899;51.174;4.456;2022-10-31T10:19:57;15.60;99.90
25918;DHT22;13899;51.174;4.456;2022-10-31T10:22:43;15.70;99.90
25918;DHT22;13899;51.174;4.456;2022-10-31T10:31:00;16.80;99.90
25918;DHT22;13899;51.174;4.456;2022-10-31T10:33:47;17.00;99.90
25918;DHT22;13899;51.174;4.456;2022-10-31T10:36:21;17.00;99.90
25918;DHT22;13899;51.174;4.456;2022-10-31T10:38:58;16.90;99.90
25918;DHT22;13899;51.174;4.456;2022-10-31T10:41:31;17.00;99.90
25918;DHT22;13899;51.174;4.456;2022-10-31T10:43:57;17.20;99.90
25918;DHT22;13899;51.174;4.456;2022-10-31T10:52:24;17.50;99.90
25918;DHT22;13899;51.174;4.456;2022-10-31T11:00:26;18.40;99.90
25918;DHT22;13899;51.174;4.456;2022-10-31T11:02:52;18.20;99.90
25918;DHT22;13899;51.174;4.456;2022-10-31T11:13:24;18.00;99.90
25918;DHT22;13899;51.174;4.456;2022-10-31T11:18:22;17.80;99.90
25918;DHT22;13899;51.174;4.456;2022-10-31T11:20:55;17.50;99.90
25918;DHT22;13899;51.174;4.456;2022-10-31T11:23:23;17.60;99.90
25918;DHT22;13899;51.174;4.456;2022-10-31T11:26:00;17.40;99.90
25918;DHT22;13899;51.174;4.456;2022-10-31T11:28:27;17.40;99.90
25918;DHT22;13899;51.174;4.456;2022-10-31T11:31:10;17.60;99.90
25918;DHT22;13899;51.174;4.456;2022-10-31T11:33:40;17.80;99.90
25918;DHT22;13899;51.174;4.456;2022-10-31T11:36:22;18.00;99.90
25918;DHT22;13899;51.174;4.456;2022-10-31T11:38:49;18.10;99.90
25918;DHT22;13899;51.174;4.456;2022-10-31T11:41:18;17.80;99.90
25918;DHT22;13899;51.174;4.456;2022-10-31T11:43:56;17.80;99.90
25918;DHT22;13899;51.174;4.456;2022-10-31T11:46:42;17.70;99.90
25918;DHT22;13899;51.174;4.456;2022-10-31T11:49:34;17.40;99.90
25918;DHT22;13899;51.174;4.456;2022-10-31T11:55:25;17.60;99.90
25918;DHT22;13899;51.174;4.456;2022-10-31T11:57:55;18.80;99.90
25918;DHT22;13899;51.174;4.456;2022-10-31T12:00:32;19.70;99.90
25918;DHT22;13899;51.174;4.456;2022-10-31T12:05:56;20.50;99.90
25918;DHT22;13899;51.174;4.456;2022-10-31T12:08:28;20.40;99.90
25918;DHT22;13899;51.174;4.456;2022-10-31T12:16:43;20.00;99.90
25918;DHT22;13899;51.174;4.456;2022-10-31T12:25:08;20.90;99.90
25918;DHT22;13899;51.174;4.456;2022-10-31T12:28:07;21.20;99.90
25918;DHT22;13899;51.174;4.456;2022-10-31T12:36:15;20.50;99.90
25918;DHT22;13899;51.174;4.456;2022-10-31T12:39:12;20.80;99.90
25918;DHT22;13899;51.174;4.456;2022-10-31T12:41:58;20.30;99.90
25918;DHT22;13899;51.174;4.456;2022-10-31T12:45:22;20.00;99.90
25918;DHT22;13899;51.174;4.456;2022-10-31T12:53:08;19.30;99.90
25918;DHT22;13899;51.174;4.456;2022-10-31T12:59:10;20.00;99.90
25918;DHT22;13899;51.174;4.456;2022-10-31T13:02:09;20.40;99.90
25918;DHT22;13899;51.174;4.456;2022-10-31T13:05:04;20.70;99.90
25918;DHT22;13899;51.174;4.456;2022-10-31T13:07:34;20.60;99.90
25918;DHT22;13899;51.174;4.456;2022-10-31T13:10:23;20.30;99.90
25918;DHT22;13899;51.174;4.456;2022-10-31T13:12:53;20.90;99.90
25918;DHT22;13899;51.174;4.456;2022-10-31T13:15:26;21.50;99.90
25918;DHT22;13899;51.174;4.456;2022-10-31T13:18:11;21.80;99.90
25918;DHT22;13899;51.174;4.456;2022-10-31T13:20:46;22.00;99.90
25918;DHT22;13899;51.174;4.456;2022-10-31T13:23:34;22.60;99.90
25918;DHT22;13899;51.174;4.456;2022-10-31T13:26:10;22.40;99.90
25918;DHT22;13899;51.174;4.456;2022-10-31T13:28:50;22.80;99.90
25918;DHT22;13899;51.174;4.456;2022-10-31T13:31:17;23.30;99.90
25918;DHT22;13899;51.174;4.456;2022-10-31T13:33:48;24.10;99.90
25918;DHT22;13899;51.174;4.456;2022-10-31T13:39:00;24.70;99.90
25918;DHT22;13899;51.174;4.456;2022-10-31T13:41:51;25.10;99.90
25918;DHT22;13899;51.174;4.456;2022-10-31T13:44:22;25.60;99.90
25918;DHT22;13899;51.174;4.456;2022-10-31T13:46:50;25.30;99.90
25918;DHT22;13899;51.174;4.456;2022-10-31T13:52:10;24.30;99.90
25918;DHT22;13899;51.174;4.456;2022-10-31T13:54:44;25.10;99.90
25918;DHT22;13899;51.174;4.456;2022-10-31T13:57:17;25.00;99.90
25918;DHT22;13899;51.174;4.456;2022-10-31T13:59:56;25.00;99.90
25918;DHT22;13899;51.174;4.456;2022-10-31T14:02:31;24.50;99.90
25918;DHT22;13899;51.174;4.456;2022-10-31T14:07:43;24.70;99.90
25918;DHT22;13899;51.174;4.456;2022-10-31T14:10:32;25.10;99.90
25918;DHT22;13899;51.174;4.456;2022-10-31T14:13:31;25.50;99.90
25918;DHT22;13899;51.174;4.456;2022-10-31T14:18:46;24.60;99.90
25918;DHT22;13899;51.174;4.456;2022-10-31T14:24:01;25.50;99.90
25918;DHT22;13899;51.174;4.456;2022-10-31T14:26:38;26.20;99.90
25918;DHT22;13899;51.174;4.456;2022-10-31T14:32:03;26.60;99.90
25918;DHT22;13899;51.174;4.456;2022-10-31T14:50:57;27.10;99.90
25918;DHT22;13899;51.174;4.456;2022-10-31T14:53:36;27.10;99.90
25918;DHT22;13899;51.174;4.456;2022-10-31T14:56:09;27.40;99.90
25918;DHT22;13899;51.174;4.456;2022-10-31T14:58:44;27.10;99.90
25918;DHT22;13899;51.174;4.456;2022-10-31T15:01:38;27.30;99.90
25918;DHT22;13899;51.174;4.456;2022-10-31T15:04:09;27.20;99.90
25918;DHT22;13899;51.174;4.456;2022-10-31T15:06:45;27.10;99.90
25918;DHT22;13899;51.174;4.456;2022-10-31T15:09:29;26.30;99.90
25918;DHT22;13899;51.174;4.456;2022-10-31T15:11:55;25.70;99.90
25918;DHT22;13899;51.174;4.456;2022-10-31T15:14:24;25.40;99.90
25918;DHT22;13899;51.174;4.456;2022-10-31T15:16:50;25.00;99.90
25918;DHT22;13899;51.174;4.456;2022-10-31T15:19:22;24.40;99.90
25918;DHT22;13899;51.174;4.456;2022-10-31T15:21:51;23.70;99.90
25918;DHT22;13899;51.174;4.456;2022-10-31T15:24:17;22.90;99.90
25918;DHT22;13899;51.174;4.456;2022-10-31T15:26:46;22.70;99.90
25918;DHT22;13899;51.174;4.456;2022-10-31T15:29:15;22.20;99.90
25918;DHT22;13899;51.174;4.456;2022-10-31T15:34:40;22.10;99.90
25918;DHT22;13899;51.174;4.456;2022-10-31T15:37:20;21.90;99.90
25918;DHT22;13899;51.174;4.456;2022-10-31T15:39:48;21.40;99.90
25918;DHT22;13899;51.174;4.456;2022-10-31T15:44:49;20.70;99.90
25918;DHT22;13899;51.174;4.456;2022-10-31T15:47:18;20.40;99.90
25918;DHT22;13899;51.174;4.456;2022-10-31T15:49:53;20.30;99.90
25918;DHT22;13899;51.174;4.456;2022-10-31T15:54:53;20.30;99.90
25918;DHT22;13899;51.174;4.456;2022-10-31T15:57:22;19.90;99.90
25918;DHT22;13899;51.174;4.456;2022-10-31T15:59:48;19.50;99.90
25918;DHT22;13899;51.174;4.456;2022-10-31T16:02:17;19.40;99.90
25918;DHT22;13899;51.174;4.456;2022-10-31T16:04:53;19.40;99.90
25918;DHT22;13899;51.174;4.456;2022-10-31T16:07:19;19.10;99.90
25918;DHT22;13899;51.174;4.456;2022-10-31T16:09:53;19.10;99.90
25918;DHT22;13899;51.174;4.456;2022-10-31T16:12:20;19.30;99.90
25918;DHT22;13899;51.174;4.456;2022-10-31T16:14:46;19.30;99.90
25918;DHT22;13899;51.174;4.456;2022-10-31T16:17:17;19.40;99.90
25918;DHT22;13899;51.174;4.456;2022-10-31T16:19:56;19.40;99.90
25918;DHT22;13899;51.174;4.456;2022-10-31T16:22:29;19.20;99.90
25918;DHT22;13899;51.174;4.456;2022-10-31T16:25:17;19.00;99.90
25918;DHT22;13899;51.174;4.456;2022-10-31T16:27:50;19.10;99.90
25918;DHT22;13899;51.174;4.456;2022-10-31T16:32:59;18.90;99.90
25918;DHT22;13899;51.174;4.456;2022-10-31T16:35:31;18.90;99.90
25918;DHT22;13899;51.174;4.456;2022-10-31T16:37:57;18.90;99.90
25918;DHT22;13899;51.174;4.456;2022-10-31T16:40:23;18.70;99.90
25918;DHT22;13899;51.174;4.456;2022-10-31T16:42:48;18.60;99.90
25918;DHT22;13899;51.174;4.456;2022-10-31T16:47:44;18.40;99.90
25918;DHT22;13899;51.174;4.456;2022-10-31T16:50:16;18.40;99.90
25918;DHT22;13899;51.174;4.456;2022-10-31T16:52:42;18.10;99.90
25918;DHT22;13899;51.174;4.456;2022-10-31T16:55:11;17.70;99.90
25918;DHT22;13899;51.174;4.456;2022-10-31T16:57:38;17.60;99.90
25918;DHT22;13899;51.174;4.456;2022-10-31T17:00:05;17.60;99.90
25918;DHT22;13899;51.174;4.456;2022-10-31T17:02:31;17.60;99.90
25918;DHT22;13899;51.174;4.456;2022-10-31T17:04:57;17.50;99.90
25918;DHT22;13899;51.174;4.456;2022-10-31T17:07:23;17.30;99.90
25918;DHT22;13899;51.174;4.456;2022-10-31T17:09:48;17.30;99.90
25918;DHT22;13899;51.174;4.456;2022-10-31T17:12:17;17.40;99.90
25918;DHT22;13899;51.174;4.456;2022-10-31T17:14:48;17.30;99.90
25918;DHT22;13899;51.174;4.456;2022-10-31T17:17:14;17.20;99.90
25918;DHT22;13899;51.174;4.456;2022-10-31T17:19:40;17.00;99.90
25918;DHT22;13899;51.174;4.456;2022-10-31T17:22:06;17.00;99.90
25918;DHT22;13899;51.174;4.456;2022-10-31T17:24:32;17.00;99.90
25918;DHT22;13899;51.174;4.456;2022-10-31T17:26:58;17.00;99.90
25918;DHT22;13899;51.174;4.456;2022-10-31T17:29:23;16.70;99.90
25918;DHT22;13899;51.174;4.456;2022-10-31T17:31:49;16.60;99.90
25918;DHT22;13899;51.174;4.456;2022-10-31T17:34:15;16.70;99.90
25918;DHT22;13899;51.174;4.456;2022-10-31T17:36:40;16.60;99.90
25918;DHT22;13899;51.174;4.456;2022-10-31T17:39:06;16.60;99.90
25918;DHT22;13899;51.174;4.456;2022-10-31T17:41:34;16.50;99.90
25918;DHT22;13899;51.174;4.456;2022-10-31T17:43:59;16.70;99.90
25918;DHT22;13899;51.174;4.456;2022-10-31T17:46:25;16.60;99.90
25918;DHT22;13899;51.174;4.456;2022-10-31T17:48:52;16.40;99.90
25918;DHT22;13899;51.174;4.456;2022-10-31T17:51:18;16.30;99.90
25918;DHT22;13899;51.174;4.456;2022-10-31T17:53:43;16.20;99.90
25918;DHT22;13899;51.174;4.456;2022-10-31T17:56:09;16.20;99.90
25918;DHT22;13899;51.174;4.456;2022-10-31T17:58:36;16.20;99.90
25918;DHT22;13899;51.174;4.456;2022-10-31T18:01:13;16.20;99.90
25918;DHT22;13899;51.174;4.456;2022-10-31T18:03:39;16.20;99.90
25918;DHT22;13899;51.174;4.456;2022-10-31T18:06:05;16.20;99.90
25918;DHT22;13899;51.174;4.456;2022-10-31T18:08:33;16.10;99.90
25918;DHT22;13899;51.174;4.456;2022-10-31T18:10:59;16.20;99.90
25918;DHT22;13899;51.174;4.456;2022-10-31T18:13:29;16.20;99.90
25918;DHT22;13899;51.174;4.456;2022-10-31T18:15:55;16.10;99.90